YCD weather

Nanaimo Airport
Nanaimo, British Columbia, Canada

Public forecast

Using degrees Celsius for public forecast. Weather courtesy of forecast.io.

Current aviation weather report (METAR) for Nanaimo Airport

Report is more than 6 hours old.

Retrieved 2019/10/15 04:00 UTC (7 hours ago):

CYCD 150400Z 00000KT 15SM OVC180 08/08 A3007 RMK AC8 LAST STFD OBS/NEXT 151300Z SLP183

Aviation forecast (TAF) for Nanaimo Airport

Forecast is more than 6 hours old.

Retrieved 2019-10-15 00:00 UTC (11 hours ago):

TAF CYCD 142340Z 1500/1504 16008KT P6SM BKN120 RMK NXT FCST WILL BE ISSUED AT 151445Z